Reportages photos

Inscriptions en ligne

Connexion

10 Km

10 KM Licques du 11/10/15 (Reelle 10)
Rang Dossard Nom Prénom Temps Cat Rang Cat Ecart Ecart Cat Club Vitesse Km/h Temps au Km
1 956 DELARACE JEAN-MARC 00:34:56 V1M 1 00:00:00 00:00:00 R.C ARRAS 17,176 03:30
2 132 LOEUILLIEUX STEPHANE 00:36:31 V1M 2 00:01:35 00:01:35 TEAM RUN OPALE 16,431 03:39
3 959 LEROUX GUILLAUME 00:36:32 SEM 1 00:01:36 00:00:00 NON LICENCIE 16,423 03:39
4 831 BRUNET MICKAEL 00:36:49 SEM 2 00:01:53 00:00:17 BLANC NEZ TRIATHLON 16,297 03:41
5 968 FOUBLE LAURENT 00:37:00 SEM 3 00:02:04 00:00:28 MARQUISE ATHLETISME 16,216 03:42
6 69 DUPIC STEPHANE 00:37:09 V1M 3 00:02:13 00:02:13 16,151 03:43
7 130 FIEVET PASCAL 00:37:15 SEM 4 00:02:19 00:00:43 PATRIOTES CROSS DE GUINES 16,107 03:44
8 111 CARBONNIER MICHEL 00:37:28 V1M 4 00:02:32 00:02:32 PATRIOTES CROSS DE GUINES 16,014 03:45
9 1709 RUMEAU MICHAEL 00:37:40 SEM 5 00:02:44 00:01:08 ATHLETIQUE CLUB CAPELLOIS 15,929 03:46
10 1713 FOULON JULIEN 00:37:49 V1M 5 00:02:53 00:02:53 NON LICENCIE 15,866 03:47
11 113 MAEREL LOIC 00:37:53 SEM 6 00:02:57 00:01:21 PATRIOTES CROSS DE GUINES 15,838 03:47
12 199 DOCQUOIS FREDERIC 00:38:05 V1M 6 00:03:09 00:03:09 LE DRAPEAU 15,755 03:49
13 52 BEGUE XAVIER 00:38:07 V1M 7 00:03:11 00:03:11 NON LICENCIE 15,741 03:49
14 110 DUCROCQ ARNAUD 00:38:13 V1M 8 00:03:17 00:03:17 PATRIOTES CROSS DE GUINES 15,700 03:49
15 135 DANEL MARC-ANDRE 00:38:48 V1M 9 00:03:52 00:03:52 LYS CALAIS TRIATHLON 15,464 03:53
16 977 BRISBAERT MATHIEU 00:38:54 SEM 7 00:03:58 00:02:22 COURIR A GRAVELINES 15,424 03:53
17 929 BADON EMMANUEL 00:38:57 SEM 8 00:04:01 00:02:25 ATHLETISME CLUB OUTREAU 15,404 03:54
18 966 GRESSIER OLIVIER 00:38:58 V1M 10 00:04:02 00:04:02 TEAM RUN OPALE 15,398 03:54
19 92 DELLIAUX EMMANUEL 00:39:11 SEM 9 00:04:15 00:02:39 TEAM TRAIL 62 15,313 03:55
20 940 WASSELIN DAVID 00:39:13 V1M 11 00:04:17 00:04:17 AS - Mark Athlétisme 15,300 03:55
21 936 BOUVOT CYRILLE 00:39:15 SEM 10 00:04:19 00:02:43 NON LICENCIE 15,287 03:56
22 995 BRUNEL JEAN-FRANCOIS 00:39:27 V1M 12 00:04:31 00:04:31 SAINT MARTIN ATHLETISME 15,209 03:57
23 91 DACQUIN FABIEN 00:39:28 V1M 13 00:04:32 00:04:32 TEAM TRAIL 62 15,203 03:57
24 123 MAZURIER ALAIN 00:39:43 V1M 14 00:04:47 00:04:47 PATRIOTES CROSS DE GUINES 15,107 03:58
25 972 DUHAUTOY SAMUEL 00:39:51 SEM 11 00:04:55 00:03:19 NON LICENCIE 15,056 03:59
26 990 HONVAULT AURELIEN 00:39:51 SEM 12 00:04:55 00:03:19 NON LICENCIE 15,056 03:59
27 122 PIERRU REYNALD 00:39:55 V1M 15 00:04:59 00:04:59 PATRIOTES CROSS DE GUINES 15,031 04:00
28 134 DELGRANGE STEPHANE 00:39:55 V1M 16 00:04:59 00:04:59 - 15,031 04:00
29 973 DELATTRE JOHANN 00:39:58 SEM 13 00:05:02 00:03:26 ATHLETISME CLUB OUTREAU 15,013 04:00
30 967 LOIRE NICOLAS 00:39:59 JUM 1 00:05:03 00:00:00 LYS CALAIS TRIATHLON 15,006 04:00
31 151 COULLIOT AMELIE 00:40:02 V1F 1 00:05:06 00:00:00 FREVENT OLYMPIC CLUB 14,988 04:00
32 828 LAVOINE FABIEN 00:40:12 V1M 17 00:05:16 00:05:16 MARCK ATHLON 14,925 04:01
33 166 RENAUX FREDERIC 00:40:18 SEM 14 00:05:22 00:03:46 Gravelines Triathlon 14,888 04:02
34 17 LEFEBVRE WILLIAM 00:40:20 SEM 15 00:05:24 00:03:48 - 14,876 04:02
35 193 FLAHAUT DANIEL 00:40:20 V1M 18 00:05:24 00:05:24 LE DRAPEAU 14,876 04:02
36 48 SCHUPPE CLOTAIRE 00:40:25 V2M 1 00:05:29 00:00:00 A.S. MARCK 14,845 04:03
37 102 BACQUET OLIVIER 00:40:31 V1M 19 00:05:35 00:05:35 14,809 04:03
38 935 DAUSQUES ALAIN 00:40:31 V1M 20 00:05:35 00:05:35 NON LICENCIE 14,809 04:03
39 121 LEMAITRE NICOLAS 00:40:33 V1M 21 00:05:37 00:05:37 PATRIOTES CROSS DE GUINES 14,797 04:03
40 989 TOROSSIAN FRANCOIS 00:40:44 SEM 16 00:05:48 00:04:12 NON LICENCIE 14,730 04:04
41 1719 HEUX FRANCOIS 00:41:01 SEM 17 00:06:05 00:04:29 NON LICENCIE 14,628 04:06
42 66 HULEUX ARNAUD 00:41:02 V1M 22 00:06:06 00:06:06 VAT TRI 14,622 04:06
43 832 COUPIN FRANCK 00:41:02 SEM 18 00:06:06 00:04:30 NON LICENCIE 14,622 04:06
44 965 DESAINS STEPHANE 00:41:19 V1M 23 00:06:23 00:06:23 NON LICENCIE 14,522 04:08
45 15 DEWET WILFRIED 00:41:23 V1M 24 00:06:27 00:06:27 14,499 04:08
46 198 TROCME JULIEN 00:41:24 SEM 19 00:06:28 00:04:52 NON LICENCIE 14,493 04:08
47 845 MORICE ARNAUD 00:41:28 V1M 25 00:06:32 00:06:32 ATHLETISME CLUB OUTREAU 14,469 04:09
48 67 DESBONNETS CHRISTOPHE 00:41:30 V1M 26 00:06:34 00:06:34 14,458 04:09
49 180 ROGERE MARC 00:41:33 SEM 20 00:06:37 00:05:01 ATHLETISME CLUB OUTREAU 14,440 04:09
50 174 HARDY FABIEN 00:41:34 V1M 27 00:06:38 00:06:38 TAMALOU 14,435 04:09
51 136 GIROUD FRANCK 00:41:40 V1M 28 00:06:44 00:06:44 A.S. MARCK 14,400 04:10
52 138 DENECKER NICOLAS 00:41:43 SEM 21 00:06:47 00:05:11 - 14,383 04:10
53 87 RIFFLART BENOIT 00:41:46 SEM 22 00:06:50 00:05:14 BERCK OPALE SUD TRIATHLON 14,366 04:11
54 18 LEFEBVRE STEPHANE 00:41:49 V1M 29 00:06:53 00:06:53 NON LICENCIE 14,348 04:11
55 143 LACROIX OLIVIER 00:41:51 SEM 23 00:06:55 00:05:19 OPALE TRAIL NATURE 14,337 04:11
56 33 MERESSE ROMAIN 00:41:54 SEM 24 00:06:58 00:05:22 - 14,320 04:11
57 932 CRETON JULIEN 00:41:57 SEM 25 00:07:01 00:05:25 ATHLETISME CLUB OUTREAU 14,303 04:12
58 188 POCHET FABIEN 00:42:02 SEM 26 00:07:06 00:05:30 Gravelines Triathlon 14,274 04:12
59 146 CATEZ DAMIEN 00:42:08 SEM 27 00:07:12 00:05:36 NON LICENCIE 14,241 04:13
60 114 QUENNEHEN HERVE 00:42:17 V1M 30 00:07:21 00:07:21 PATRIOTES CROSS DE GUINES 14,190 04:14
61 949 BRUNELLE MAXIME 00:42:25 SEM 28 00:07:29 00:05:53 ALKA TRAIL 14,145 04:15
62 812 DAMIENS PHILIPPE 00:42:28 V1M 31 00:07:32 00:07:32 LE DRAPEAU 14,129 04:15
63 844 SENET EMILIE 00:42:30 SEF 1 00:07:34 00:00:00 A.S. MARCK 14,118 04:15
64 945 SKRZYPCZAK DAVID 00:42:31 SEM 29 00:07:35 00:05:59 BERCK ATHLETISME COTE D OPALE 14,112 04:15
65 976 FARNWORTH GRAEME 00:42:36 V1M 32 00:07:40 00:07:40 ATHLETIQUE CLUB CAPELLOIS 14,085 04:16
66 1704 CREPIN OLIVIER 00:42:46 SEM 30 00:07:50 00:06:14 NON LICENCIE 14,030 04:17
67 150 DELAVIEZ JEAN-MARC 00:42:48 V2M 2 00:07:52 00:02:23 FREVENT OLYMPIC CLUB 14,019 04:17
68 195 DOCQUOIS MICHEL 00:42:52 V1M 33 00:07:56 00:07:56 LE DRAPEAU 13,997 04:17
69 72 BERLY BORIS 00:42:57 SEM 31 00:08:01 00:06:25 NON LICENCIE 13,970 04:18
70 73 PERARD MARIE-CHRISTINE 00:42:58 V2F 1 00:08:02 00:00:00 JOGGING CLUB LICQUOIS 13,964 04:18
71 131 DEVY ZULMEA 00:42:59 V1M 34 00:08:03 00:08:03 PATRIOTES CROSS DE GUINES 13,959 04:18
72 964 PECQUEUX OLIVIER 00:43:04 SEM 32 00:08:08 00:06:32 NON LICENCIE 13,932 04:18
73 96 LEBAS ERIC 00:43:05 V1M 35 00:08:09 00:08:09 TEAM TRAIL 62 13,926 04:19
74 117 PIERRU SIGRID 00:43:06 V1F 2 00:08:10 00:03:04 PATRIOTES CROSS DE GUINES 13,921 04:19
75 109 BUY JACQUES 00:43:06 V2M 3 00:08:10 00:02:41 PATRIOTES CROSS DE GUINES 13,921 04:19
76 37 PARENTY DAMIEN 00:43:20 V1M 36 00:08:24 00:08:24 NON LICENCIE 13,846 04:20
77 154 BONNEL TANGUY 00:43:35 JUM 2 00:08:39 00:03:36 SPORTING CLUB BOULONNAIS 13,767 04:22
78 104 BEGUE YANNICK 00:43:41 V1M 37 00:08:45 00:08:45 NON LICENCIE 13,735 04:22
79 46 JANDAU FABIEN 00:43:43 SEM 33 00:08:47 00:07:11 TEAM OPALE 13,725 04:22
80 183 HAMEZ XAVIER 00:43:44 V1M 38 00:08:48 00:08:48 - 13,720 04:22
81 22 BEGUE THIERRY 00:43:47 V1M 39 00:08:51 00:08:51 JOGGING CLUB LICQUOIS 13,704 04:23
82 119 GEENS MELANIE 00:43:47 V1F 3 00:08:51 00:03:45 PATRIOTES CROSS DE GUINES 13,704 04:23
83 105 BARRAS JULIEN 00:43:49 SEM 34 00:08:53 00:07:17 13,693 04:23
84 139 BERDIN VALERIE 00:43:50 V1F 4 00:08:54 00:03:48 NON LICENCIE 13,688 04:23
85 169 BEAUCHAMP FREDERIC 00:43:53 SEM 35 00:08:57 00:07:21 - 13,673 04:23
86 1702 MALLIOPOULOS XAVIER 00:43:54 V2M 4 00:08:58 00:03:29 BERCK ATHLETISME COTE D OPALE 13,667 04:23
87 184 SABLON EMMANUEL 00:43:59 V1M 40 00:09:03 00:09:03 VT TRAIL HARDINGHEN 13,642 04:24
88 837 MENDEZ ALBERTO 00:44:01 ESM 1 00:09:05 00:00:00 - 13,631 04:24
89 982 MOITY FRANCK 00:44:08 V1M 41 00:09:12 00:09:12 NON LICENCIE 13,595 04:25
90 842 QUENEHEN EMMANUEL 00:44:09 SEM 36 00:09:13 00:07:37 NON LICENCIE 13,590 04:25
91 40 LEFEBVRE DAVID 00:44:12 SEM 37 00:09:16 00:07:40 NL 13,575 04:25
92 1 JUDAS FABIEN 00:44:14 SEM 38 00:09:18 00:07:42 NL 13,564 04:25
93 196 CHOUROT LUCIEN 00:44:18 V2M 5 00:09:22 00:03:53 LE DRAPEAU 13,544 04:26
94 155 CHRETIEN FABIEN 00:44:19 SEM 39 00:09:23 00:07:47 13,539 04:26
95 999 HERMEL THIERRY 00:44:22 V1M 42 00:09:26 00:09:26 NON LICENCIE 13,524 04:26
96 38 BASSEMENT YOHANN 00:44:31 SEM 40 00:09:35 00:07:59 HUGGY 13,478 04:27
97 14 DUCLOIE JEROME 00:44:34 SEM 41 00:09:38 00:08:02 NON LICENCIE 13,463 04:27
98 1706 CORNU HUGO 00:44:37 CAM 1 00:09:41 00:00:00 NON LICENCIE 13,448 04:28
99 938 MACREZ JEAN-MARIE 00:44:40 SEM 42 00:09:44 00:08:08 NON LICENCIE 13,433 04:28
100 1718 DUCLOY VIVIEN 00:44:42 SEM 43 00:09:46 00:08:10 NON LICENCIE 13,423 04:28
101 41 BODART LUDOVIC 00:44:42 SEM 44 00:09:46 00:08:10 NON LICENCIE 13,423 04:28
102 50 LAURENT YOHAN 00:44:48 SEM 45 00:09:52 00:08:16 NON LICENCIE 13,393 04:29
103 115 BAILLET DAVID 00:44:51 V1M 43 00:09:55 00:09:55 PATRIOTES DE GUINES 13,378 04:29
104 988 COUPIN WILFRIED 00:44:52 SEM 46 00:09:56 00:08:20 BLANC NEZ TRIATHLON 13,373 04:29
105 931 SUEUR SYLVAIN 00:44:58 JUM 3 00:10:02 00:04:59 NON LICENCIE 13,343 04:30
106 954 FLAJOLLET DIDIER 00:45:02 V1M 44 00:10:06 00:10:06 NON LICENCIE 13,323 04:30
107 179 PAINSET NICOLAS 00:45:05 V1M 45 00:10:09 00:10:09 NON LICENCIE 13,309 04:30
108 823 DERTHE LUDOVIC 00:45:13 SEM 47 00:10:17 00:08:41 NON LICENCIE 13,269 04:31
109 95 HODIQUE MYRIAM 00:45:15 SEF 2 00:10:19 00:02:45 TEAM TRAIL 62 13,260 04:31
110 825 ALLEXANDRE GERALD 00:45:17 V1M 46 00:10:21 00:10:21 JOGGING CLUB LICQUOIS 13,250 04:32
111 1000 VAN MEIN DGIORAMI 00:45:23 ESM 2 00:10:27 00:01:22 SAINT MARTIN ATHLETISME 13,221 04:32
112 998 PATSY GILLES 00:45:26 V1M 47 00:10:30 00:10:30 NON LICENCIE 13,206 04:33
113 141 CRESSON XAVIER 00:45:28 V2M 6 00:10:32 00:05:03 A.S. MARCK 13,196 04:33
114 82 SCOTTE MATHIEU 00:45:31 SEM 48 00:10:35 00:08:59 NON LICENCIE 13,182 04:33
115 839 DURANEL FRANCOIS 00:45:44 ESM 3 00:10:48 00:01:43 - 13,120 04:34
116 934 BOCQUET PATRICK 00:45:45 V3M 1 00:10:49 00:00:00 NON LICENCIE 13,115 04:34
117 1715 DUMONT BERNARD 00:45:48 V1M 48 00:10:52 00:10:52 NORSEMAN CHALLENGE 13,100 04:35
118 159 LEMATTRE MATHIEU 00:45:58 SEM 49 00:11:02 00:09:26 NON LICENCIE 13,053 04:36
119 846 HARDOIN JEAN-FRANCOIS 00:46:00 V1M 49 00:11:04 00:11:04 SAINT MARTIN ATHLETISME 13,043 04:36
120 992 JOUGLET FRANCK 00:46:03 V1M 50 00:11:07 00:11:07 NON LICENCIE 13,029 04:36
121 27 CATEZ LUDOVIC 00:46:04 SEM 50 00:11:08 00:09:32 - 13,025 04:36
122 30 MAILLET VINCENT 00:46:07 SEM 51 00:11:11 00:09:35 LES ATTAQUES BADMINTON 13,010 04:37
123 16 LEFEBVRE JUSTINE 00:46:15 SEF 3 00:11:19 00:03:45 - 12,973 04:37
124 158 PETOLAS VALENTIN 00:46:31 SEM 52 00:11:35 00:09:59 NON LICENCIE 12,899 04:39
125 54 DARCHEVILLE CHRISTOPHE 00:46:36 V1M 51 00:11:40 00:11:40 - 12,876 04:40
126 94 GRESSIER DELPHINE 00:46:36 V1F 5 00:11:40 00:06:34 TEAM TRAIL 62 12,876 04:40
127 170 LECOCQ FRANCOIS 00:46:41 SEM 53 00:11:45 00:10:09 NON LICENCIE 12,853 04:40
128 833 LECRAS MICKAEL 00:46:41 SEM 54 00:11:45 00:10:09 NON LICENCIE 12,853 04:40
129 993 BUCHER ERIC 00:46:43 V1M 52 00:11:47 00:11:47 PATRIOTES CROSS DE GUINES 12,843 04:40
130 834 EMILIE MOUSSAY 00:46:45 SEF 4 00:11:49 00:04:15 - 12,834 04:41
131 983 LECOMTE LAURENT 00:46:51 V1M 53 00:11:55 00:11:55 NON LICENCIE 12,807 04:41
132 1716 COMPIEGNE STEPHANE 00:47:03 SEM 55 00:12:07 00:10:31 NON LICENCIE 12,752 04:42
133 946 MERLOT CHLOE 00:47:03 SEF 5 00:12:07 00:04:33 NON LICENCIE 12,752 04:42
134 57 VAUTION FABRICE 00:47:03 V1M 54 00:12:07 00:12:07 NON LICENCIE 12,752 04:42
135 29 DUVIEUXBOURG DAVID 00:47:04 SEM 56 00:12:08 00:10:32 NON LICENCIE 12,748 04:42
136 118 DENEZ CHRISTELLE 00:47:05 V1F 6 00:12:09 00:07:03 PATRIOTES CROSS DE GUINES 12,743 04:43
137 44 SELINGUE THIERRY 00:47:12 V2M 7 00:12:16 00:06:47 COURIR A GRAVELINES 12,712 04:43
138 961 GRENON ERIC 00:47:17 V1M 55 00:12:21 00:12:21 NON LICENCIE 12,689 04:44
139 818 CLEMENT STEPHANE 00:47:20 SEM 57 00:12:24 00:10:48 PATRIOTES CROSS DE GUINES 12,676 04:44
140 137 GRIGNON MICHAEL 00:47:26 SEM 58 00:12:30 00:10:54 NON LICENCIE 12,649 04:45
141 1710 CAPELLE MICHEL 00:47:29 V2M 8 00:12:33 00:07:04 NON LICENCIE 12,636 04:45
142 81 HANNEQUIN PIERRICK 00:47:32 SEM 59 00:12:36 00:11:00 - 12,623 04:45
143 133 MOREL CHRISTOPHER 00:47:33 SEM 60 00:12:37 00:11:01 NON LICENCIE 12,618 04:45
144 981 CHARLES DAVID 00:47:34 V1M 56 00:12:38 00:12:38 NON LICENCIE 12,614 04:45
145 1717 THIBAUT OLIVIER 00:47:39 SEM 61 00:12:43 00:11:07 NON LICENCIE 12,592 04:46
146 9 DEBAS GERARD 00:47:43 V3M 2 00:12:47 00:01:58 NON LICENCIE 12,574 04:46
147 55 DROLLET HERVE 00:47:51 V2M 9 00:12:55 00:07:26 12,539 04:47
148 124 BERNARD ERIC 00:47:52 V1M 57 00:12:56 00:12:56 PATRIOTES CROSS DE GUINES 12,535 04:47
149 189 BATTREL RAPHAELLE 00:47:53 SEF 6 00:12:57 00:05:23 - 12,530 04:47
150 165 MOTHERON CECILE 00:47:54 V2F 2 00:12:58 00:04:56 JOGGING CLUB LICQUOIS 12,526 04:47
151 958 VANHERSECKE AMANDINE 00:47:57 SEF 7 00:13:01 00:05:27 NL 12,513 04:48
152 829 MARLARD THIERRY 00:48:04 V2M 10 00:13:08 00:07:39 A.S. MARCK 12,483 04:48
153 955 HENQUEZ DOMINIQUE 00:48:04 V2M 11 00:13:08 00:07:39 A.S. MARCK 12,483 04:48
154 168 SAINT GEORGES FREDDY 00:48:29 SEM 62 00:13:33 00:11:57 - 12,375 04:51
155 1708 MAILLARD JEROME 00:48:38 SEM 63 00:13:42 00:12:06 NON LICENCIE 12,337 04:52
156 975 LEGROS MATHIEU 00:48:44 SEM 64 00:13:48 00:12:12 NON LICENCIE 12,312 04:52
157 835 FOULON LUDOVIC 00:48:45 SEM 65 00:13:49 00:12:13 - 12,308 04:52
158 176 CARON DIDIER 00:48:48 V1M 58 00:13:52 00:13:52 AL DESVRES 12,295 04:53
159 197 PAQUES ERIC 00:48:49 V2M 12 00:13:53 00:08:24 LE DRAPEAU 12,291 04:53
160 59 LELOIR ERIC 00:48:51 SEM 66 00:13:55 00:12:19 - 12,282 04:53
161 953 LACHERIE JULIEN 00:48:53 SEM 67 00:13:57 00:12:21 NON LICENCIE 12,274 04:53
162 947 QUIEVRE CHRISTOPHE 00:48:53 V1M 59 00:13:57 00:13:57 NON LICENCIE 12,274 04:53
163 177 DARCY GERARD 00:48:55 V2M 13 00:13:59 00:08:30 NON LICENCIE 12,266 04:54
164 1701 MAQUET MAXIME 00:49:04 SEM 68 00:14:08 00:12:32 NON LICENCIE 12,228 04:54
165 173 MERLIN MATTHIEU 00:49:07 SEM 69 00:14:11 00:12:35 - 12,216 04:55
166 813 DURIEZ DAMIEN 00:49:15 V1M 60 00:14:19 00:14:19 12,183 04:56
167 23 RENAUT MAXIME 00:49:18 V1M 61 00:14:22 00:14:22 NON LICENCIE 12,170 04:56
168 74 MARLARD ALICE 00:49:18 ESF 1 00:14:22 00:00:00 - 12,170 04:56
169 987 DUBROEUCQ FRANCIS 00:49:22 V2M 14 00:14:26 00:08:57 NON LICENCIE 12,154 04:56
170 991 WARON ANTHONY 00:49:22 SEM 70 00:14:26 00:12:50 NON LICENCIE 12,154 04:56
171 112 LECOUFFE AMANDINE 00:49:22 SEF 8 00:14:26 00:06:52 NON LICENCIE 12,154 04:56
172 128 DUQUENOY ALAIN 00:49:26 V1M 62 00:14:30 00:14:30 PATRIOTES CROSS DE GUINES 12,138 04:57
173 152 BOULANGER JEAN PHILIPPE 00:49:28 V2M 15 00:14:32 00:09:03 12,129 04:57
174 39 OUART CHRISTOPHE 00:49:35 V1M 63 00:14:39 00:14:39 NON LICENCIE 12,101 04:58
175 99 WALCZAK FABIEN 00:49:37 SEM 71 00:14:41 00:13:05 - 12,093 04:58
176 53 BOUQUILLION FREDERIC 00:49:39 SEM 72 00:14:43 00:13:07 12,085 04:58
177 970 DUSSAUSSOIS BERTRAND 00:49:42 V3M 3 00:14:46 00:03:57 NON LICENCIE 12,072 04:58
178 838 GUNNARSSON VIKTORIA 00:49:46 ESF 2 00:14:50 00:00:28 - 12,056 04:59
179 160 DELATTRE ROMUALD 00:49:47 SEM 73 00:14:51 00:13:15 NON LICENCIE 12,052 04:59
180 88 HOUTON JULIEN 00:49:50 SEM 74 00:14:54 00:13:18 US COLEMBERT 12,040 04:59
181 1703 DEBOUDT CHRISTOPHE 00:49:52 SEM 75 00:14:56 00:13:20 NON LICENCIE 12,032 04:59
182 969 FLEURISSON VINCENT 00:49:55 SEM 76 00:14:59 00:13:23 RC ALKATRAIL 12,020 05:00
183 171 CLETON JONATHAN 00:49:59 SEM 77 00:15:03 00:13:27 NL 12,004 05:00
184 56 MEPLON ELISE 00:49:59 ESF 3 00:15:03 00:00:41 - 12,004 05:00
185 156 DUVENT FREDERIC 00:50:01 V1M 64 00:15:05 00:15:05 AMIS CYCLOS DE L ARDRESIS 11,996 05:00
186 61 EVRARD JEAN-LOUIS 00:50:12 V1M 65 00:15:16 00:15:16 - 11,952 05:01
187 24 SAINT GEORGES PHILIPPE 00:50:18 V1M 66 00:15:22 00:15:22 11,928 05:02
188 167 TOWMSEND ELISABETH 00:50:19 SEF 9 00:15:23 00:07:49 NON LICENCIE 11,924 05:02
189 84 LENGLET CINDY 00:50:20 SEF 10 00:15:24 00:07:50 - 11,921 05:02
190 962 HEMELSDAEL BRUNO 00:50:20 V2M 16 00:15:24 00:09:55 COURIR CANTON CASSEL 11,921 05:02
191 43 BRISBAERT JEAN LUC 00:50:21 V2M 17 00:15:25 00:09:56 COURIR A GRAVELINES 11,917 05:02
192 127 DUQUENOY MANDY 00:50:29 V1F 7 00:15:33 00:10:27 PATRIOTES CROSS DE GUINES 11,885 05:03
193 980 DELPLANQUE CHRISTOPHE 00:50:33 V2M 18 00:15:37 00:10:08 NON LICENCIE 11,869 05:03
194 974 DUHAMEL THIERRY 00:50:36 V1M 67 00:15:40 00:15:40 LE DRAPEAU 11,858 05:04
195 142 COURBY CHRISTOPHE 00:50:45 V1M 68 00:15:49 00:15:49 11,823 05:05
196 930 ROSEY NATHALIE 00:50:48 V1F 8 00:15:52 00:10:46 NON LICENCIE 11,811 05:05
197 25 SAMELOT VINCENT 00:50:50 SEM 78 00:15:54 00:14:18 11,803 05:05
198 125 CARBONNIER SEBASTIEN 00:50:51 V1M 69 00:15:55 00:15:55 PATRIOTES CROSS DE GUINES 11,799 05:05
199 75 BEYAERT EMILIE 00:50:52 ESF 4 00:15:56 00:01:34 - 11,796 05:05
200 120 PLATIAU MARIE 00:50:58 SEF 11 00:16:02 00:08:28 PATRIOTES DE GUINES 11,772 05:06
201 951 CLERBOUT MARC 00:50:59 V2M 19 00:16:03 00:10:34 NON LICENCIE 11,769 05:06
202 80 COLLIGNON JEROME 00:51:18 V1M 70 00:16:22 00:16:22 - 11,696 05:08
203 826 PONTHIEU MICKAEL 00:51:24 V1M 71 00:16:28 00:16:28 NON LICENCIE 11,673 05:08
204 58 DELCUVE VIRGINIE 00:51:25 SEF 12 00:16:29 00:08:55 11,669 05:08
205 47 GOUDAL NATHALIE 00:51:27 V2F 3 00:16:31 00:08:29 A.S. MARCK 11,662 05:09
206 819 PERARD LOETITIA 00:51:27 SEF 13 00:16:31 00:08:57 11,662 05:09
207 51 DAVID REMY 00:51:30 SEM 79 00:16:34 00:14:58 ALKATRAIL 11,650 05:09
208 937 DANTIN TONY 00:51:37 SEM 80 00:16:41 00:15:05 NON LICENCIE 11,624 05:10
209 817 VERGEOT CLAUDE 00:51:38 V3M 4 00:16:42 00:05:53 ELAN FRUGEOIS 11,620 05:10
210 85 LEGRAND MATTHIEU 00:51:46 V1M 72 00:16:50 00:16:50 - 11,590 05:11
211 182 HAMEZ FRANCOISE 00:51:47 V2F 4 00:16:51 00:08:49 - 11,587 05:11
212 181 MERLIN DAVID 00:51:49 V1M 73 00:16:53 00:16:53 NON LICENCIE 11,579 05:11
213 42 VERLINDEN MATTHIEU 00:52:04 SEM 81 00:17:08 00:15:32 CALH JOGGING (HERLIES) 11,524 05:12
214 12 DELANGE GUILLAUME 00:52:17 SEM 82 00:17:21 00:15:45 - 11,476 05:14
215 35 COCQUEMPOT ROMAIN 00:52:18 SEM 83 00:17:22 00:15:46 11,472 05:14
216 163 ROZE JUSTINE 00:52:40 ESF 5 00:17:44 00:03:22 JOGGING CLUB LICQUOIS 11,392 05:16
217 996 DOYER ERIC 00:53:01 V1M 74 00:18:05 00:18:05 NON LICENCIE 11,317 05:18
218 952 DURANEL GUILLAUME 00:53:04 CAM 2 00:18:08 00:08:27 NON LICENCIE 11,307 05:18
219 814 BAILLY ISABELLE 00:53:11 V1F 9 00:18:15 00:13:09 LE DRAPEAU 11,282 05:19
220 4 MAGNIER BEATRICE 00:53:18 V2F 5 00:18:22 00:10:20 LES PINKS LADIES 11,257 05:20
221 140 DELEGLISE GUENAELLE 00:53:18 SEF 14 00:18:22 00:10:48 - 11,257 05:20
222 31 LESUISSE LUDOVIC 00:53:33 SEM 84 00:18:37 00:17:01 NON LICENCIE 11,204 05:21
223 843 QUENEZ VIRGINIE 00:53:50 SEF 15 00:18:54 00:11:20 - 11,146 05:23
224 153 LEURETTE LUDOVIC 00:53:51 V2M 20 00:18:55 00:13:26 - 11,142 05:23
225 939 CADART FREDERIC 00:53:59 SEM 85 00:19:03 00:17:27 NON LICENCIE 11,115 05:24
226 60 LEFEBVRE DENISE 00:54:16 V3F 1 00:19:20 00:00:00 NON LICENCIE 11,057 05:26
227 850 ROSEY JEROME 00:54:17 V1M 75 00:19:21 00:19:21 NON LICENCIE 11,053 05:26
228 827 DUFFY CHRISTOPHE 00:54:19 V1M 76 00:19:23 00:19:23 - 11,046 05:26
229 78 MATHON LUCIE 00:54:19 SEF 16 00:19:23 00:11:49 - 11,046 05:26
230 34 JOLY MELANIE 00:54:32 SEF 17 00:19:36 00:12:02 LE SOC 11,002 05:27
231 190 ZEDDAM LAHOUARI 00:54:32 V3M 5 00:19:36 00:08:47 NON LICENCIE 11,002 05:27
232 161 BOCQUET FLORA 00:54:38 ESF 6 00:19:42 00:05:20 - 10,982 05:28
233 8 DELPIERRE ERIC 00:54:48 V2M 21 00:19:52 00:14:23 10,949 05:29
234 1714 BERNARD HELENE 00:54:58 SEF 18 00:20:02 00:12:28 TOUQUET OPALE ATHLETISME 10,916 05:30
235 144 FRISQUET AURELIE 00:54:58 SEF 19 00:20:02 00:12:28 10,916 05:30
236 129 CREPIN AUDREY 00:55:10 SEF 20 00:20:14 00:12:40 PATRIOTES CROSS DE GUINES 10,876 05:31
237 192 WELLEM JULIETTE 00:55:12 ESF 7 00:20:16 00:05:54 - 10,870 05:31
238 172 MAGNIER MICKAEL 00:55:21 SEM 86 00:20:25 00:18:49 NON LICENCIE 10,840 05:32
239 824 BAYARD DAVID 00:55:44 V1M 77 00:20:48 00:20:48 COURIR DANS LE LUMBROIS 10,766 05:34
240 830 DESCAMPS DOMINIQUE 00:55:44 V2M 22 00:20:48 00:15:19 - 10,766 05:34
241 821 DEVRIES NATALIE 00:55:44 V1F 10 00:20:48 00:15:42 ALKATRAIL 10,766 05:34
242 76 BUCHET LAURENCE 00:55:49 SEF 21 00:20:53 00:13:19 CULTURE DANSE ETAPLES 10,749 05:35
243 11 VIDILLES ALIENOR 00:56:13 SEF 22 00:21:17 00:13:43 - 10,673 05:37
244 62 BLOUIN STEPHANE 00:56:15 V1M 78 00:21:19 00:21:19 - 10,667 05:37
245 63 BLOUIN ANNE-SOPHIE 00:56:27 V1F 11 00:21:31 00:16:25 - 10,629 05:39
246 19 KENTOUR SOUMYA 00:56:56 V1F 12 00:22:00 00:16:54 10,539 05:42
247 971 ABDERRAHMANE ZOUBIDA 00:56:58 V2F 6 00:22:02 00:14:00 NON LICENCIE 10,532 05:42
248 64 FOISSEY JEAN-LOUIS 00:57:01 SEM 87 00:22:05 00:20:29 - 10,523 05:42
249 93 DELLIAUX DELPHINE 00:57:04 SEF 23 00:22:08 00:14:34 TEAM TRAIL 62 10,514 05:42
250 1705 LENGLET SOPHIE 00:57:18 SEF 24 00:22:22 00:14:48 NON LICENCIE 10,471 05:44
251 1707 PERON MAXIME 00:57:18 SEM 88 00:22:22 00:20:46 NON LICENCIE 10,471 05:44
252 68 LAPOTRE TEDDY 00:58:06 SEM 89 00:23:10 00:21:34 NON LICENCIE 10,327 05:49
253 86 SANDRINE FROMENT 00:58:13 SEF 25 00:23:17 00:15:43 ALKATRAIL 10,306 05:49
254 986 LIGNY GILLES 00:58:19 V1M 79 00:23:23 00:23:23 NON LICENCIE 10,289 05:50
255 1711 COHEN-SOLAL ANTOINE 00:58:22 SEM 90 00:23:26 00:21:50 NON LICENCIE 10,280 05:50
256 191 NEVEU PAMELA 00:58:22 SEF 26 00:23:26 00:15:52 ATHLETISME CLUB OUTREAU 10,280 05:50
257 107 LEFRANC STEPHANE 00:58:41 SEM 91 00:23:45 00:22:09 PATRIOTES CROSS DE GUINES 10,224 05:52
258 116 FEUTRY MATHILDE 00:58:58 SEF 27 00:24:02 00:16:28 PATRIOTES CROSS DE GUINES 10,175 05:54
259 79 NOEL SANDRINE 00:59:01 SEF 28 00:24:05 00:16:31 - 10,167 05:54
260 145 RINGOT SEBASTIEN 00:59:05 SEM 92 00:24:09 00:22:33 - 10,155 05:54
261 162 DUQUENOY HELENE 01:00:03 SEF 29 00:25:07 00:17:33 JOGGING CLUB LICQUOIS 9,992 06:00
262 164 FIEVET CAROLINE 01:00:36 SEF 30 00:25:40 00:18:06 JOGGING CLUB LICQUOIS 9,901 06:04
263 1712 VASSAL MAXIME 01:00:41 SEM 93 00:25:45 00:24:09 NON LICENCIE 9,887 06:04
264 49 MACHADO ALESSANDRA 01:01:00 V1F 13 00:26:04 00:20:58 PASSERELLES 9,836 06:06
265 83 LEROUX REBECCA 01:01:28 V1F 14 00:26:32 00:21:26 9,761 06:09
266 2 MAILLARD NADINE 01:01:39 V3F 2 00:26:43 00:07:23 LES PINKS LADIES 9,732 06:10
267 948 QUIEVRE CATHERINE 01:01:44 SEF 31 00:26:48 00:19:14 NON LICENCIE 9,719 06:10
268 28 TROUILLE GAETAN 01:02:06 V1M 80 00:27:10 00:27:10 NON LICENCIE 9,662 06:13
269 100 MACREZ SABRINA 01:02:16 SEF 32 00:27:20 00:19:46 - 9,636 06:14
270 101 MACREZ JEROME 01:02:16 SEM 94 00:27:20 00:25:44 9,636 06:14
271 979 HARLE DOMINIQUE 01:02:38 V1F 15 00:27:42 00:22:36 NON LICENCIE 9,580 06:16
272 847 FOURNIER ALEXANDRE 01:02:49 SEM 95 00:27:53 00:26:17 NON LICENCIE 9,552 06:17
273 848 FOURNIER AMELIE 01:02:50 SEF 33 00:27:54 00:20:20 NON LICENCIE 9,549 06:17
274 36 PARENTY NATHALIE 01:03:13 SEF 34 00:28:17 00:20:43 RAC DE RONCHIN 9,491 06:19
275 26 RIGOBERT MELANIE 01:03:13 SEF 35 00:28:17 00:20:43 - 9,491 06:19
276 841 YARD SABRINA 01:03:22 SEF 36 00:28:26 00:20:52 - 9,469 06:20
277 978 FASQUELLE VERONIQUE 01:03:43 V2F 7 00:28:47 00:20:45 NON LICENCIE 9,417 06:22
278 90 BOCQUET CATHERINE 01:03:49 V1F 16 00:28:53 00:23:47 - 9,402 06:23
279 65 FOISSEY KARINE 01:04:00 SEF 37 00:29:04 00:21:30 - 9,375 06:24
280 836 HOLUIGUE NATACHA 01:04:01 ESF 8 00:29:05 00:14:43 - 9,373 06:24
281 89 OGEZ CLAUDIE 01:04:04 V1F 17 00:29:08 00:24:02 - 9,365 06:24
282 985 SAINT-MAXENT DELPHINE 01:04:19 V1F 18 00:29:23 00:24:17 NON LICENCIE 9,329 06:26
283 32 POLLET AURELIE 01:04:24 SEF 38 00:29:28 00:21:54 - 9,317 06:26
284 840 SOTTY MELANIE 01:04:47 ESF 9 00:29:51 00:15:29 - 9,262 06:29
285 77 HERBAUT MELANIE 01:04:53 V1F 19 00:29:57 00:24:51 - 9,247 06:29
286 960 JOLY EMILIE 01:04:54 SEF 39 00:29:58 00:22:24 NON LICENCIE 9,245 06:29
287 963 SEHNING JUDITH 01:04:56 V1F 20 00:30:00 00:24:54 NON LICENCIE 9,240 06:30
288 149 GOURDIN LUCAS 01:04:57 SEM 96 00:30:01 00:28:25 POUR LE SOURIRE DE LUCAS 9,238 06:30
289 849 TASSART HELENE 01:06:17 SEF 40 00:31:21 00:23:47 AS MARCK 9,052 06:38
290 928 LEROY AURELIE 01:06:17 SEF 41 00:31:21 00:23:47 JOGGING CLUB LICQUOIS 9,052 06:38
291 941 BUZZI JULIE 01:06:17 SEF 42 00:31:21 00:23:47 AS - Mark Athlétisme 9,052 06:38
292 942 ETIENNE CATHERINE 01:06:17 V1F 21 00:31:21 00:26:15 AS - Mark Athlétisme 9,052 06:38
293 950 PAUL MURIELLE 01:06:18 SEF 43 00:31:22 00:23:48 ALKA TRAIL 9,050 06:38
294 997 MACHADO VIRGINIE 01:06:18 SEF 44 00:31:22 00:23:48 NON LICENCIE 9,050 06:38
295 994 BELLEGUEULLE CELINE 01:06:18 SEF 45 00:31:22 00:23:48 9,050 06:38
296 944 MARTEL VANESSA 01:06:18 V1F 22 00:31:22 00:26:16 NON LICENCIE 9,050 06:38
297 70 HARLE JOHAN 01:06:58 V1M 81 00:32:02 00:32:02 8,960 06:42
298 71 SAMELOT AMELIE 01:06:59 SEF 46 00:32:03 00:24:29 8,957 06:42
299 984 MARCHAND-SAINT-MAXENT CARINE 01:07:11 V1F 23 00:32:15 00:27:09 NON LICENCIE 8,931 06:43
300 20 DORSO DOMINIQUE 01:08:04 V2M 23 00:33:08 00:27:39 - 8,815 06:48
301 147 CALMANT BEVERLEY 01:08:43 V1F 24 00:33:47 00:28:41 - 8,732 06:52
302 10 PIQUE FABIEN 01:11:12 SEM 97 00:36:16 00:34:40 - 8,427 07:07
303 5 LIGNIER MARIE FRANCE 01:11:26 V4F 1 00:36:30 00:00:00 PINK LADIES 8,399 07:09
304 108 IMBERT ANNE-SOPHIE 01:13:59 SEF 47 00:39:03 00:31:29 PATRIOTES CROSS DE GUINES 8,110 07:24
305 957 JOLY ALEXANDRA 01:16:03 SEF 48 00:41:07 00:33:33 NON LICENCIE 7,890 07:36

Novembre 2017
Lun Mar Mer Jeu Ven Sam Dim
1
2
3
4
5
6
7
8
9
10
11
12
13
14
15
16
17
18
19
20
21
22
23
24
25
27
28
29
30